createdAt,value
2023-04-09T00:00:08.498Z,102239.00
2023-04-09T00:03:01.079Z,102232.00
2023-04-09T00:05:30.011Z,102233.40
2023-04-09T00:07:58.493Z,102236.00
2023-04-09T00:10:27.379Z,102237.20
2023-04-09T00:12:56.169Z,102239.40
2023-04-09T00:15:31.059Z,102234.40
2023-04-09T00:18:01.056Z,102234.20
2023-04-09T00:20:29.705Z,102233.00
2023-04-09T00:22:58.699Z,102238.60
2023-04-09T00:25:28.959Z,102240.40
2023-04-09T00:27:57.823Z,102238.60
2023-04-09T00:30:29.592Z,102242.20
2023-04-09T00:32:58.590Z,102238.40
2023-04-09T00:35:27.154Z,102241.60
2023-04-09T00:37:56.358Z,102240.20
2023-04-09T00:40:25.139Z,102237.80
2023-04-09T00:42:53.749Z,102238.00
2023-04-09T00:45:22.420Z,102238.60
2023-04-09T00:47:51.657Z,102235.40
2023-04-09T00:50:20.807Z,102232.40
2023-04-09T00:52:49.493Z,102221.60
2023-04-09T00:55:19.116Z,102221.80
2023-04-09T00:57:47.587Z,102221.40
2023-04-09T01:00:16.588Z,102219.60
2023-04-09T01:02:45.663Z,102217.40
2023-04-09T01:05:15.903Z,102218.40
2023-04-09T01:08:02.605Z,102218.60
2023-04-09T01:10:45.836Z,102213.80
2023-04-09T01:13:21.584Z,102221.00
2023-04-09T01:15:57.438Z,102224.20
2023-04-09T01:18:47.523Z,102222.80
2023-04-09T01:21:20.886Z,102224.20
2023-04-09T01:24:14.808Z,102216.20
2023-04-09T01:27:07.696Z,102214.20
2023-04-09T01:29:51.756Z,102219.80
2023-04-09T01:32:21.600Z,102221.00
2023-04-09T01:34:51.054Z,102219.20
2023-04-09T01:37:20.833Z,102214.40
2023-04-09T01:39:49.419Z,102213.60
2023-04-09T01:42:18.722Z,102217.00
2023-04-09T01:44:49.122Z,102217.60
2023-04-09T01:47:17.841Z,102205.80
2023-04-09T01:49:46.839Z,102205.20
2023-04-09T01:52:15.638Z,102202.20
2023-04-09T01:54:44.207Z,102204.80
2023-04-09T01:57:12.792Z,102198.20
2023-04-09T01:59:41.664Z,102202.00
2023-04-09T02:02:19.265Z,102203.60
2023-04-09T02:04:51.956Z,102204.00
2023-04-09T02:07:50.442Z,102208.60
2023-04-09T02:10:22.881Z,102217.20
2023-04-09T02:12:53.825Z,102216.20
2023-04-09T02:15:23.514Z,102209.60
2023-04-09T02:17:52.543Z,102216.80
2023-04-09T02:20:22.117Z,102218.80
2023-04-09T02:22:50.762Z,102223.80
2023-04-09T02:25:19.785Z,102225.00
2023-04-09T02:27:48.439Z,102228.60
2023-04-09T02:30:16.921Z,102227.60
2023-04-09T02:32:45.863Z,102233.60
2023-04-09T02:35:15.625Z,102232.00
2023-04-09T02:37:44.412Z,102241.20
2023-04-09T02:40:13.210Z,102243.00
2023-04-09T02:42:41.993Z,102242.20
2023-04-09T02:45:11.601Z,102247.60
2023-04-09T02:47:40.928Z,102245.20
2023-04-09T02:50:09.805Z,102247.40
2023-04-09T02:52:39.205Z,102242.80
2023-04-09T02:55:08.712Z,102248.00
2023-04-09T02:57:37.702Z,102241.60
2023-04-09T03:00:07.958Z,102247.80
2023-04-09T03:02:37.248Z,102246.60
2023-04-09T03:05:07.030Z,102241.60
2023-04-09T03:07:35.620Z,102249.40
2023-04-09T03:10:05.020Z,102249.20
2023-04-09T03:12:33.508Z,102247.80
2023-04-09T03:15:02.191Z,102243.20
2023-04-09T03:17:32.368Z,102246.20
2023-04-09T03:20:01.243Z,102245.20
2023-04-09T03:22:40.547Z,102248.80
2023-04-09T03:25:19.876Z,102245.80
2023-04-09T03:27:48.768Z,102238.20
2023-04-09T03:30:23.398Z,102237.40
2023-04-09T03:32:52.036Z,102242.40
2023-04-09T03:35:22.409Z,102238.60
2023-04-09T03:37:52.329Z,102230.80
2023-04-09T03:40:21.215Z,102234.00
2023-04-09T03:42:49.809Z,102236.60
2023-04-09T03:45:18.799Z,102231.40
2023-04-09T03:47:49.354Z,102233.60
2023-04-09T03:50:20.727Z,102235.20
2023-04-09T03:52:52.431Z,102238.60
2023-04-09T03:55:21.766Z,102234.80
2023-04-09T03:57:50.730Z,102235.40
2023-04-09T04:00:20.232Z,102238.20
2023-04-09T04:03:15.038Z,102239.40
2023-04-09T04:06:07.371Z,102227.60
2023-04-09T04:08:51.200Z,102224.40
2023-04-09T04:11:20.717Z,102219.20
2023-04-09T04:13:49.813Z,102218.00
2023-04-09T04:16:18.354Z,102213.20
2023-04-09T04:18:47.293Z,102214.40
2023-04-09T04:21:17.869Z,102226.00
2023-04-09T04:23:49.687Z,102229.20
2023-04-09T04:26:21.137Z,102237.80
2023-04-09T04:28:49.972Z,102233.60
2023-04-09T04:31:28.868Z,102226.80
2023-04-09T04:33:59.076Z,102225.60
2023-04-09T04:36:28.068Z,102230.80
2023-04-09T04:38:56.655Z,102236.80
2023-04-09T04:41:51.552Z,102234.00
2023-04-09T04:44:23.625Z,102232.40
2023-04-09T04:46:56.927Z,102231.80
2023-04-09T04:49:25.701Z,102230.40
2023-04-09T04:51:54.492Z,102221.00
2023-04-09T04:54:23.077Z,102210.80
2023-04-09T04:56:54.046Z,102209.00
2023-04-09T04:59:38.944Z,102201.60
2023-04-09T05:02:08.959Z,102202.80
2023-04-09T05:04:46.505Z,102210.40
2023-04-09T05:07:16.624Z,102215.80
2023-04-09T05:09:53.288Z,102220.20
2023-04-09T05:12:22.081Z,102222.20
2023-04-09T05:14:52.915Z,102221.40
2023-04-09T05:17:21.748Z,102216.00
2023-04-09T05:19:54.431Z,102220.60
2023-04-09T05:22:28.813Z,102219.80
2023-04-09T05:24:57.628Z,102220.80
2023-04-09T05:27:27.920Z,102222.40
2023-04-09T05:30:01.091Z,102229.40
2023-04-09T05:32:29.944Z,102231.00
2023-04-09T05:34:59.002Z,102231.20
2023-04-09T05:37:28.097Z,102227.80
2023-04-09T05:39:57.456Z,102230.80
2023-04-09T05:42:26.290Z,102224.80
2023-04-09T05:45:03.591Z,102218.40
2023-04-09T05:47:32.592Z,102220.00
2023-04-09T05:50:14.678Z,102213.60
2023-04-09T05:52:43.172Z,102217.00
2023-04-09T05:55:12.744Z,102216.20
2023-04-09T05:57:53.598Z,102214.20
2023-04-09T06:00:22.327Z,102214.80
2023-04-09T06:02:52.054Z,102217.80
2023-04-09T06:05:21.457Z,102214.00
2023-04-09T06:07:50.147Z,102211.80
2023-04-09T06:10:18.915Z,102206.00
2023-04-09T06:12:48.832Z,102211.00
2023-04-09T06:15:17.518Z,102209.20
2023-04-09T06:17:46.298Z,102203.00
2023-04-09T06:20:15.196Z,102191.20
2023-04-09T06:22:43.988Z,102183.00
2023-04-09T06:25:12.679Z,102181.60
2023-04-09T06:27:41.268Z,102185.20
2023-04-09T06:30:11.232Z,102185.40
2023-04-09T06:32:51.021Z,102188.20
2023-04-09T06:35:23.669Z,102181.60
2023-04-09T06:37:52.390Z,102182.00
2023-04-09T06:40:23.586Z,102177.20
2023-04-09T06:42:52.335Z,102181.40
2023-04-09T06:45:30.125Z,102192.40
2023-04-09T06:47:59.433Z,102194.40
2023-04-09T06:50:28.115Z,102197.20
2023-04-09T06:52:58.538Z,102193.00
2023-04-09T06:55:27.166Z,102195.80
2023-04-09T06:57:55.827Z,102193.80
2023-04-09T07:00:24.646Z,102206.80
2023-04-09T07:02:54.586Z,102209.80
2023-04-09T07:05:23.303Z,102207.80
2023-04-09T07:07:51.789Z,102196.60
2023-04-09T07:10:20.579Z,102197.00
2023-04-09T07:12:49.156Z,102194.20
2023-04-09T07:15:17.855Z,102195.00
2023-04-09T07:17:46.564Z,102195.20
2023-04-09T07:20:15.220Z,102197.60
2023-04-09T07:22:43.855Z,102199.60
2023-04-09T07:25:12.597Z,102199.80
2023-04-09T07:27:41.382Z,102199.00
2023-04-09T07:30:13.555Z,102195.20
2023-04-09T07:32:42.375Z,102195.60
2023-04-09T07:35:11.914Z,102196.60
2023-04-09T07:37:40.538Z,102194.40
2023-04-09T07:40:10.072Z,102197.00
2023-04-09T07:42:39.972Z,102197.00
2023-04-09T07:45:09.350Z,102190.00
2023-04-09T07:47:41.615Z,102196.80
2023-04-09T07:50:10.868Z,102194.40
2023-04-09T07:52:39.539Z,102192.40
2023-04-09T07:55:08.875Z,102196.20
2023-04-09T07:57:37.916Z,102192.00
2023-04-09T08:00:07.632Z,102193.20
2023-04-09T08:02:42.357Z,102195.40
2023-04-09T08:05:11.594Z,102189.20
2023-04-09T08:07:40.243Z,102197.40
2023-04-09T08:10:14.182Z,102194.00
2023-04-09T08:12:43.262Z,102193.20
2023-04-09T08:15:12.137Z,102193.60
2023-04-09T08:17:40.858Z,102192.40
2023-04-09T08:20:10.687Z,102195.40
2023-04-09T08:22:41.371Z,102198.00
2023-04-09T08:25:09.954Z,102195.00
2023-04-09T08:27:39.971Z,102195.00
2023-04-09T08:30:09.864Z,102196.40
2023-04-09T08:32:38.533Z,102197.20
2023-04-09T08:35:09.214Z,102202.00
2023-04-09T08:37:37.815Z,102200.60
2023-04-09T08:40:07.856Z,102199.00
2023-04-09T08:42:38.401Z,102196.40
2023-04-09T08:45:08.937Z,102194.60
2023-04-09T08:47:38.427Z,102194.60
2023-04-09T08:50:07.844Z,102194.00
2023-04-09T08:52:37.684Z,102188.80
2023-04-09T08:55:07.944Z,102190.20
2023-04-09T08:57:40.499Z,102192.00
2023-04-09T09:00:10.009Z,102191.80
2023-04-09T09:02:39.747Z,102192.00
2023-04-09T09:05:09.293Z,102189.60
2023-04-09T09:07:53.818Z,102192.00
2023-04-09T09:10:32.395Z,102189.40
2023-04-09T09:13:00.877Z,102186.40
2023-04-09T09:15:31.247Z,102188.20
2023-04-09T09:18:01.032Z,102188.60
2023-04-09T09:20:30.318Z,102194.60
2023-04-09T09:23:00.147Z,102192.00
2023-04-09T09:25:29.224Z,102188.20
2023-04-09T09:28:12.878Z,102182.60
2023-04-09T09:30:42.039Z,102182.00
2023-04-09T09:33:12.287Z,102185.20
2023-04-09T09:36:09.623Z,102186.60
2023-04-09T09:38:57.454Z,102192.20
2023-04-09T09:41:26.287Z,102191.40
2023-04-09T09:43:55.267Z,102191.20
2023-04-09T09:46:26.635Z,102188.80
2023-04-09T09:48:55.715Z,102194.40
2023-04-09T09:51:30.243Z,102185.60
2023-04-09T09:53:59.852Z,102190.80
2023-04-09T09:56:38.736Z,102189.20
2023-04-09T09:59:22.313Z,102193.80
2023-04-09T10:02:00.237Z,102191.60
2023-04-09T10:04:32.457Z,102191.20
2023-04-09T10:07:04.160Z,102191.60
2023-04-09T10:09:38.661Z,102194.60
2023-04-09T10:12:09.970Z,102202.60
2023-04-09T10:14:39.949Z,102197.60
2023-04-09T10:17:08.820Z,102198.20
2023-04-09T10:19:47.690Z,102194.80
2023-04-09T10:22:24.416Z,102192.60
2023-04-09T10:24:53.286Z,102188.60
2023-04-09T10:27:22.520Z,102190.20
2023-04-09T10:29:54.366Z,102184.40
2023-04-09T10:32:28.647Z,102182.20
2023-04-09T10:35:02.404Z,102190.00
2023-04-09T10:37:31.187Z,102192.00
2023-04-09T10:39:59.876Z,102191.60
2023-04-09T10:42:43.610Z,102194.40
2023-04-09T10:45:17.045Z,102189.00
2023-04-09T10:47:51.917Z,102192.40
2023-04-09T10:50:29.597Z,102190.20
2023-04-09T10:53:00.554Z,102185.60
2023-04-09T10:55:48.618Z,102181.60
2023-04-09T10:58:17.657Z,102174.20
2023-04-09T11:00:48.875Z,102173.20
2023-04-09T11:03:30.904Z,102166.80
2023-04-09T11:06:10.603Z,102167.80
2023-04-09T11:08:39.421Z,102166.40
2023-04-09T11:11:08.185Z,102159.40
2023-04-09T11:13:37.075Z,102151.80
2023-04-09T11:16:07.527Z,102144.00
2023-04-09T11:18:37.486Z,102144.40
2023-04-09T11:21:06.837Z,102141.40
2023-04-09T11:23:35.505Z,102144.20
2023-04-09T11:26:04.089Z,102142.80
2023-04-09T11:28:35.673Z,102147.60
2023-04-09T11:31:07.250Z,102146.60
2023-04-09T11:33:35.985Z,102143.40
2023-04-09T11:36:08.088Z,102149.20
2023-04-09T11:38:39.284Z,102142.80
2023-04-09T11:41:12.918Z,102147.40
2023-04-09T11:43:41.501Z,102148.00
2023-04-09T11:46:10.484Z,102146.60
2023-04-09T11:48:39.269Z,102143.20
2023-04-09T11:51:07.956Z,102140.00
2023-04-09T11:53:37.766Z,102138.20
2023-04-09T11:56:07.478Z,102144.60
2023-04-09T11:58:36.593Z,102141.00
2023-04-09T12:01:05.884Z,102142.00
2023-04-09T12:03:34.682Z,102140.40
2023-04-09T12:06:06.321Z,102142.80
2023-04-09T12:08:36.698Z,102139.80
2023-04-09T12:11:16.821Z,102135.80
2023-04-09T12:13:46.922Z,102133.40
2023-04-09T12:16:21.326Z,102133.40
2023-04-09T12:18:51.386Z,102127.60
2023-04-09T12:21:20.155Z,102117.20
2023-04-09T12:23:48.838Z,102124.00
2023-04-09T12:26:17.424Z,102116.80
2023-04-09T12:28:46.115Z,102113.20
2023-04-09T12:31:14.802Z,102119.40
2023-04-09T12:33:43.382Z,102106.40
2023-04-09T12:36:12.118Z,102110.60
2023-04-09T12:38:41.574Z,102107.20
2023-04-09T12:41:10.057Z,102104.20
2023-04-09T12:43:39.177Z,102102.00
2023-04-09T12:46:08.602Z,102099.40
2023-04-09T12:48:37.349Z,102099.20
2023-04-09T12:51:06.990Z,102097.20
2023-04-09T12:53:36.052Z,102095.60
2023-04-09T12:56:05.408Z,102092.20
2023-04-09T12:58:34.041Z,102092.80
2023-04-09T13:01:04.597Z,102095.80
2023-04-09T13:03:33.593Z,102094.60
2023-04-09T13:06:02.352Z,102088.20
2023-04-09T13:08:31.452Z,102088.60
2023-04-09T13:11:00.237Z,102084.60
2023-04-09T13:13:29.036Z,102079.00
2023-04-09T13:15:57.715Z,102083.20
2023-04-09T13:18:26.405Z,102081.40
2023-04-09T13:20:55.089Z,102080.80
2023-04-09T13:23:23.779Z,102075.80
2023-04-09T13:25:52.369Z,102074.80
2023-04-09T13:28:21.663Z,102069.00
2023-04-09T13:30:50.266Z,102073.60
2023-04-09T13:33:19.046Z,102070.20
2023-04-09T13:35:47.861Z,102068.00
2023-04-09T13:38:16.518Z,102065.20
2023-04-09T13:40:45.504Z,102062.20
2023-04-09T13:43:14.088Z,102057.80
2023-04-09T13:45:42.674Z,102052.40
2023-04-09T13:48:12.797Z,102049.00
2023-04-09T13:50:42.916Z,102049.00
2023-04-09T13:53:11.496Z,102044.00
2023-04-09T13:55:40.629Z,102041.20
2023-04-09T13:58:09.514Z,102040.20
2023-04-09T14:00:38.577Z,102037.20
2023-04-09T14:03:07.911Z,102039.60
2023-04-09T14:05:36.673Z,102044.40
2023-04-09T14:08:05.355Z,102040.00
2023-04-09T14:10:33.955Z,102034.00
2023-04-09T14:13:06.723Z,102037.20
2023-04-09T14:15:35.471Z,102034.80
2023-04-09T14:18:04.123Z,102025.20
2023-04-09T14:20:36.347Z,102026.40
2023-04-09T14:23:04.956Z,102023.40
2023-04-09T14:25:33.538Z,102023.00
2023-04-09T14:28:02.229Z,102021.40
2023-04-09T14:30:31.018Z,102019.00
2023-04-09T14:32:59.543Z,102011.80
2023-04-09T14:35:28.450Z,102010.40
2023-04-09T14:37:57.188Z,102010.40
2023-04-09T14:40:25.865Z,102013.60
2023-04-09T14:42:54.552Z,102008.80
2023-04-09T14:45:23.340Z,102011.40
2023-04-09T14:47:51.945Z,102005.20
2023-04-09T14:50:20.937Z,102004.60
2023-04-09T14:52:49.514Z,102006.80
2023-04-09T14:55:19.121Z,102008.20
2023-04-09T14:57:47.706Z,102011.60
2023-04-09T15:00:16.886Z,102009.40
2023-04-09T15:02:45.576Z,102010.80
2023-04-09T15:05:14.490Z,102006.40
2023-04-09T15:07:44.196Z,102001.00
2023-04-09T15:10:13.115Z,102003.20
2023-04-09T15:12:41.779Z,102000.80
2023-04-09T15:15:11.423Z,102000.20
2023-04-09T15:17:40.729Z,102002.80
2023-04-09T15:20:10.749Z,101998.60
2023-04-09T15:22:39.278Z,101998.60
2023-04-09T15:25:08.786Z,101998.20
2023-04-09T15:27:37.473Z,101997.20
2023-04-09T15:30:07.596Z,101997.40
2023-04-09T15:32:36.695Z,101996.00
2023-04-09T15:35:06.105Z,101990.60
2023-04-09T15:37:34.672Z,101989.80
2023-04-09T15:40:04.713Z,101988.60
2023-04-09T15:42:33.273Z,101996.40
2023-04-09T15:45:01.963Z,101991.60
2023-04-09T15:47:33.030Z,101999.40
2023-04-09T15:50:02.035Z,101991.60
2023-04-09T15:52:30.784Z,101994.80
2023-04-09T15:54:59.375Z,101993.80
2023-04-09T15:57:27.965Z,101992.20
2023-04-09T15:59:56.493Z,101999.60
2023-04-09T16:02:26.125Z,101999.60
2023-04-09T16:04:54.942Z,101998.40
2023-04-09T16:07:23.529Z,102006.80
2023-04-09T16:09:52.214Z,102006.00
2023-04-09T16:12:20.702Z,102006.60
2023-04-09T16:14:49.400Z,102005.20
2023-04-09T16:17:17.977Z,102011.80
2023-04-09T16:19:46.551Z,102016.20
2023-04-09T16:22:15.139Z,102012.00
2023-04-09T16:24:44.032Z,102018.80
2023-04-09T16:27:14.712Z,102012.80
2023-04-09T16:29:43.965Z,102012.60
2023-04-09T16:32:12.659Z,102012.80
2023-04-09T16:34:41.432Z,102017.80
2023-04-09T16:37:10.223Z,102016.00
2023-04-09T16:39:38.813Z,102021.40
2023-04-09T16:42:07.392Z,102020.00
2023-04-09T16:44:36.034Z,102022.40
2023-04-09T16:47:06.198Z,102025.00
2023-04-09T16:49:34.687Z,102027.80
2023-04-09T16:52:03.464Z,102026.60
2023-04-09T16:54:32.192Z,102028.40
2023-04-09T16:57:02.351Z,102027.80
2023-04-09T16:59:31.678Z,102027.80
2023-04-09T17:02:00.397Z,102031.60
2023-04-09T17:04:29.451Z,102029.40
2023-04-09T17:06:58.380Z,102031.40
2023-04-09T17:09:28.295Z,102033.60
2023-04-09T17:11:58.213Z,102030.80
2023-04-09T17:14:26.673Z,102038.60
2023-04-09T17:16:56.862Z,102036.00
2023-04-09T17:19:25.882Z,102038.40
2023-04-09T17:21:54.469Z,102042.00
2023-04-09T17:24:23.670Z,102038.20
2023-04-09T17:26:52.558Z,102049.40
2023-04-09T17:29:21.038Z,102051.00
2023-04-09T17:31:53.470Z,102058.00
2023-04-09T17:34:21.999Z,102062.60
2023-04-09T17:36:56.729Z,102059.40
2023-04-09T17:39:25.919Z,102063.40
2023-04-09T17:41:56.606Z,102066.40
2023-04-09T17:44:25.562Z,102059.60
2023-04-09T17:46:54.274Z,102063.60
2023-04-09T17:49:23.032Z,102067.20
2023-04-09T17:51:52.025Z,102070.00
2023-04-09T17:54:21.530Z,102061.80
2023-04-09T17:56:50.627Z,102065.20
2023-04-09T17:59:19.621Z,102069.80
2023-04-09T18:01:48.537Z,102071.00
2023-04-09T18:04:17.552Z,102067.00
2023-04-09T18:06:46.190Z,102068.20
2023-04-09T18:09:14.878Z,102069.40
2023-04-09T18:11:43.462Z,102076.80
2023-04-09T18:14:12.350Z,102078.00
2023-04-09T18:16:41.654Z,102081.20
2023-04-09T18:19:12.080Z,102080.80
2023-04-09T18:21:40.769Z,102078.80
2023-04-09T18:24:09.365Z,102087.00
2023-04-09T18:26:38.143Z,102090.00
2023-04-09T18:29:08.713Z,102094.60
2023-04-09T18:31:37.350Z,102092.60
2023-04-09T18:34:05.954Z,102092.00
2023-04-09T18:36:34.632Z,102093.00
2023-04-09T18:39:05.193Z,102095.20
2023-04-09T18:41:33.748Z,102103.00
2023-04-09T18:44:02.638Z,102103.00
2023-04-09T18:46:31.358Z,102108.40
2023-04-09T18:49:00.522Z,102108.00
2023-04-09T18:51:30.951Z,102100.60
2023-04-09T18:54:00.978Z,102102.60
2023-04-09T18:56:29.656Z,102105.80
2023-04-09T18:58:58.555Z,102107.40
2023-04-09T19:01:27.354Z,102104.80
2023-04-09T19:03:56.381Z,102101.80
2023-04-09T19:06:26.218Z,102100.80
2023-04-09T19:08:58.399Z,102098.20
2023-04-09T19:11:27.117Z,102102.00
2023-04-09T19:13:55.800Z,102098.00
2023-04-09T19:16:24.965Z,102101.40
2023-04-09T19:18:54.040Z,102100.40
2023-04-09T19:21:22.884Z,102096.20
2023-04-09T19:23:51.569Z,102100.80
2023-04-09T19:26:20.368Z,102100.20
2023-04-09T19:28:49.190Z,102095.00
2023-04-09T19:31:17.754Z,102104.40
2023-04-09T19:33:46.523Z,102100.20
2023-04-09T19:36:15.101Z,102101.80
2023-04-09T19:38:43.891Z,102103.80
2023-04-09T19:41:12.473Z,102108.20
2023-04-09T19:43:42.402Z,102109.00
2023-04-09T19:46:11.174Z,102115.40
2023-04-09T19:48:41.104Z,102114.20
2023-04-09T19:51:17.857Z,102109.40
2023-04-09T19:53:49.932Z,102111.00
2023-04-09T19:56:19.234Z,102107.40
2023-04-09T19:58:48.430Z,102104.00
2023-04-09T20:01:17.269Z,102106.00
2023-04-09T20:03:46.133Z,102107.80
2023-04-09T20:06:15.005Z,102099.80
2023-04-09T20:08:43.692Z,102100.00
2023-04-09T20:11:19.432Z,102096.80
2023-04-09T20:13:48.369Z,102100.60
2023-04-09T20:16:16.844Z,102106.20
2023-04-09T20:18:45.718Z,102110.20
2023-04-09T20:21:15.671Z,102113.60
2023-04-09T20:23:45.947Z,102113.60
2023-04-09T20:26:14.649Z,102119.00
2023-04-09T20:28:43.322Z,102116.80
2023-04-09T20:31:12.008Z,102121.60
2023-04-09T20:33:41.830Z,102122.40
2023-04-09T20:36:19.128Z,102122.00
2023-04-09T20:38:48.933Z,102124.80
2023-04-09T20:41:17.515Z,102119.20
2023-04-09T20:43:46.816Z,102118.60
2023-04-09T20:46:15.738Z,102120.80
2023-04-09T20:48:44.716Z,102120.40
2023-04-09T20:51:14.352Z,102122.00
2023-04-09T20:53:43.096Z,102118.80
2023-04-09T20:56:12.952Z,102120.80
2023-04-09T20:58:42.108Z,102124.60
2023-04-09T21:01:10.704Z,102125.00
2023-04-09T21:03:40.494Z,102126.40
2023-04-09T21:06:09.298Z,102129.20
2023-04-09T21:08:38.799Z,102129.40
2023-04-09T21:11:07.591Z,102134.80
2023-04-09T21:13:51.112Z,102142.80
2023-04-09T21:16:24.236Z,102137.20
2023-04-09T21:18:53.005Z,102139.60
2023-04-09T21:21:22.207Z,102138.80
2023-04-09T21:23:50.892Z,102132.20
2023-04-09T21:26:20.199Z,102136.80
2023-04-09T21:28:50.764Z,102129.00
2023-04-09T21:31:21.465Z,102122.60
2023-04-09T21:33:50.906Z,102131.40
2023-04-09T21:36:19.487Z,102130.60
2023-04-09T21:38:48.342Z,102135.60
2023-04-09T21:41:16.926Z,102134.60
2023-04-09T21:43:45.535Z,102133.40
2023-04-09T21:46:14.263Z,102134.00
2023-04-09T21:48:43.193Z,102132.80
2023-04-09T21:51:12.086Z,102129.60
2023-04-09T21:53:40.672Z,102137.80
2023-04-09T21:56:10.081Z,102137.40
2023-04-09T21:58:38.665Z,102138.20
2023-04-09T22:01:15.780Z,102139.40
2023-04-09T22:03:47.727Z,102137.00
2023-04-09T22:06:16.600Z,102144.60
2023-04-09T22:08:56.208Z,102143.00
2023-04-09T22:11:28.447Z,102143.00
2023-04-09T22:13:58.108Z,102133.80
2023-04-09T22:16:27.481Z,102134.60
2023-04-09T22:18:56.643Z,102131.80
2023-04-09T22:21:26.233Z,102131.00
2023-04-09T22:23:54.819Z,102131.40
2023-04-09T22:26:24.214Z,102132.80
2023-04-09T22:28:53.219Z,102130.20
2023-04-09T22:31:22.237Z,102129.20
2023-04-09T22:33:50.787Z,102134.60
2023-04-09T22:36:19.689Z,102137.00
2023-04-09T22:38:48.475Z,102140.00
2023-04-09T22:41:17.799Z,102139.20
2023-04-09T22:43:46.458Z,102141.40
2023-04-09T22:46:15.237Z,102147.00
2023-04-09T22:48:45.131Z,102139.80
2023-04-09T22:51:15.534Z,102138.60
2023-04-09T22:53:44.172Z,102139.60
2023-04-09T22:56:13.676Z,102138.60
2023-04-09T22:58:42.258Z,102143.80
2023-04-09T23:01:10.954Z,102143.60
2023-04-09T23:03:39.647Z,102141.60
2023-04-09T23:06:08.437Z,102144.40
2023-04-09T23:08:39.398Z,102147.40
2023-04-09T23:11:10.606Z,102145.60
2023-04-09T23:13:39.295Z,102148.80
2023-04-09T23:16:09.935Z,102143.60
2023-04-09T23:18:38.918Z,102147.80
2023-04-09T23:21:09.694Z,102149.00
2023-04-09T23:23:39.052Z,102144.60
2023-04-09T23:26:08.051Z,102148.60
2023-04-09T23:28:36.540Z,102150.40
2023-04-09T23:31:06.166Z,102148.20
2023-04-09T23:33:34.827Z,102152.20
2023-04-09T23:36:03.530Z,102149.40
2023-04-09T23:38:32.100Z,102149.00
2023-04-09T23:41:00.684Z,102148.00
2023-04-09T23:43:29.270Z,102149.40
2023-04-09T23:45:57.756Z,102144.80
2023-04-09T23:48:26.650Z,102147.80
2023-04-09T23:50:55.228Z,102146.80
2023-04-09T23:53:23.918Z,102152.80
2023-04-09T23:55:52.948Z,102152.40
2023-04-09T23:58:22.119Z,102146.80
